createdAt,value
2015-11-20T00:00:14.540Z,96.6
2015-11-20T00:01:14.465Z,96.7
2015-11-20T00:02:14.405Z,96.2
2015-11-20T00:03:14.377Z,96.3
2015-11-20T00:04:14.301Z,96.3
2015-11-20T00:05:14.258Z,96.1
2015-11-20T00:06:14.198Z,96.4
2015-11-20T00:07:14.139Z,96.3
2015-11-20T00:08:14.078Z,96.5
2015-11-20T00:09:14.019Z,96
2015-11-20T00:10:13.975Z,95.7
2015-11-20T00:11:13.899Z,96.1
2015-11-20T00:12:13.856Z,95.8
2015-11-20T00:13:13.826Z,96.1
2015-11-20T00:14:13.736Z,96.3
2015-11-20T00:15:13.692Z,96.1
2015-11-20T00:16:13.631Z,97
2015-11-20T00:17:13.603Z,96.6
2015-11-20T00:18:13.525Z,96.3
2015-11-20T00:19:13.464Z,96.2
2015-11-20T00:20:13.405Z,96.4
2015-11-20T00:21:13.361Z,96.2
2015-11-20T00:22:13.286Z,96.7
2015-11-20T00:23:13.523Z,96.7
2015-11-20T00:24:13.198Z,97
2015-11-20T00:25:13.132Z,97.2
2015-11-20T00:26:13.072Z,96.6
2015-11-20T00:27:13.013Z,96.5
2015-11-20T00:28:12.953Z,96.4
2015-11-20T00:29:12.908Z,96.3
2015-11-20T00:30:12.865Z,96.2
2015-11-20T00:31:12.789Z,96
2015-11-20T00:32:12.730Z,95.8
2015-11-20T00:33:12.685Z,95.9
2015-11-20T00:34:12.626Z,96.4
2015-11-20T00:35:12.582Z,96.8
2015-11-20T00:36:12.522Z,97.1
2015-11-20T00:37:12.477Z,97.1
2015-11-20T00:38:12.418Z,97
2015-11-20T00:39:12.357Z,97.2
2015-11-20T00:40:12.299Z,96.9
2015-11-20T00:41:12.239Z,97
2015-11-20T00:42:12.194Z,96.8
2015-11-20T00:43:12.118Z,97
2015-11-20T00:44:12.075Z,97
2015-11-20T00:45:12.016Z,97.3
2015-11-20T00:46:11.971Z,97.1
2015-11-20T00:47:11.957Z,96.8
2015-11-20T00:48:11.852Z,97.1
2015-11-20T00:49:11.871Z,97.6
2015-11-20T00:50:11.732Z,97.3
2015-11-20T00:51:11.750Z,97.4
2015-11-20T00:52:11.643Z,97.4
2015-11-20T00:53:11.585Z,97.1
2015-11-20T00:54:11.524Z,97.1
2015-11-20T00:55:11.465Z,96.9
2015-11-20T00:56:11.405Z,96.7
2015-11-20T00:57:11.361Z,96.5
2015-11-20T00:58:11.330Z,96.6
2015-11-20T00:59:11.238Z,97
2015-11-20T01:00:11.194Z,97
2015-11-20T01:01:11.368Z,96.9
2015-11-20T01:02:11.090Z,96.7
2015-11-20T01:03:11.015Z,96.3
2015-11-20T01:04:10.955Z,96.2
2015-11-20T01:05:10.911Z,96.3
2015-11-20T01:06:10.851Z,96.4
2015-11-20T01:07:10.792Z,96.2
2015-11-20T01:08:10.747Z,96.1
2015-11-20T01:09:10.703Z,96.5
2015-11-20T01:10:10.628Z,96.2
2015-11-20T01:11:10.568Z,96.2
2015-11-20T01:12:10.524Z,96
2015-11-20T01:13:10.465Z,95.9
2015-11-20T01:14:10.420Z,96
2015-11-20T01:15:10.345Z,96
2015-11-20T01:16:10.535Z,96.1
2015-11-20T01:17:10.320Z,96.1
2015-11-20T01:18:10.212Z,96.9
2015-11-20T01:19:10.137Z,96.9
2015-11-20T01:20:10.062Z,96.4
2015-11-20T01:21:10.017Z,96.3
2015-11-20T01:22:09.223Z,96.3
2015-11-20T01:23:09.930Z,96.1
2015-11-20T01:24:09.854Z,96.1
2015-11-20T01:25:09.794Z,96.4
2015-11-20T01:26:09.970Z,96.6
2015-11-20T01:27:09.925Z,96.6
2015-11-20T01:28:09.631Z,96.4
2015-11-20T01:29:09.587Z,96.9
2015-11-20T01:30:09.512Z,96.7
2015-11-20T01:31:09.451Z,96.6
2015-11-20T01:32:09.408Z,97
2015-11-20T01:33:09.348Z,96.9
2015-11-20T01:34:09.304Z,96.7
2015-11-20T01:35:09.275Z,96.6
2015-11-20T01:36:09.181Z,96.6
2015-11-20T01:37:09.122Z,96.6
2015-11-20T01:38:09.077Z,96.4
2015-11-20T01:39:09.049Z,96.6
2015-11-20T01:40:08.973Z,96.6
2015-11-20T01:41:08.914Z,96.3
2015-11-20T01:42:08.854Z,96.3
2015-11-20T01:43:08.794Z,95.9
2015-11-20T01:44:08.750Z,95.5
2015-11-20T01:45:08.691Z,95.9
2015-11-20T01:46:08.646Z,96.1
2015-11-20T01:47:08.571Z,96.3
2015-11-20T01:48:08.511Z,96.6
2015-11-20T01:49:08.467Z,96.4
2015-11-20T01:50:08.423Z,96.4
2015-11-20T01:51:08.583Z,96
2015-11-20T01:52:08.303Z,95.6
2015-11-20T01:53:08.228Z,95.6
2015-11-20T01:54:08.183Z,95.9
2015-11-20T01:55:08.140Z,96.1
2015-11-20T01:56:08.080Z,95.7
2015-11-20T01:57:08.020Z,95.9
2015-11-20T01:58:07.961Z,96
2015-11-20T01:59:08.151Z,95.8
2015-11-20T02:00:07.841Z,95.8
2015-11-20T02:01:07.813Z,95.4
2015-11-20T02:02:07.753Z,95.3
2015-11-20T02:03:07.741Z,95.3
2015-11-20T02:04:07.869Z,95.1
2015-11-20T02:05:07.574Z,95.3
2015-11-20T02:06:07.514Z,95.1
2015-11-20T02:07:07.470Z,95.2
2015-11-20T02:08:07.411Z,95.3
2015-11-20T02:09:07.350Z,94.9
2015-11-20T02:10:07.291Z,94.7
2015-11-20T02:11:07.246Z,94.9
2015-11-20T02:12:07.187Z,94.8
2015-11-20T02:13:07.127Z,94.9
2015-11-20T02:14:07.067Z,94.2
2015-11-20T02:15:07.055Z,94.1
2015-11-20T02:16:06.963Z,94.3
2015-11-20T02:17:06.919Z,93.8
2015-11-20T02:18:06.857Z,94.3
2015-11-20T02:19:06.796Z,94.9
2015-11-20T02:20:06.738Z,94.8
2015-11-20T02:21:06.677Z,94.7
2015-11-20T02:22:06.633Z,94.5
2015-11-20T02:23:06.573Z,95.1
2015-11-20T02:24:06.513Z,95.3
2015-11-20T02:25:06.454Z,95.4
2015-11-20T02:26:06.457Z,95.2
2015-11-20T02:27:06.349Z,95
2015-11-20T02:28:06.307Z,95.4
2015-11-20T02:29:06.231Z,95.4
2015-11-20T02:30:06.421Z,95.4
2015-11-20T02:31:06.127Z,95.1
2015-11-20T02:32:06.082Z,95.3
2015-11-20T02:33:06.024Z,95.4
2015-11-20T02:34:06.011Z,95.5
2015-11-20T02:35:05.904Z,95.2
2015-11-20T02:36:06.094Z,94.9
2015-11-20T02:37:05.800Z,95
2015-11-20T02:38:05.741Z,95.1
2015-11-20T02:41:20.639Z,94.4
2015-11-20T02:41:42.999Z,94.5
2015-11-20T02:42:42.924Z,94.2
2015-11-20T02:43:42.880Z,94.2
2015-11-20T02:44:42.835Z,93.8
2015-11-20T02:45:42.760Z,94.6
2015-11-20T02:46:42.715Z,94.3
2015-11-20T02:47:42.640Z,94.1
2015-11-20T02:48:42.596Z,94.7
2015-11-20T02:49:42.551Z,94.4
2015-11-20T02:50:42.477Z,93.8
2015-11-20T02:51:42.433Z,93.7
2015-11-20T02:52:42.607Z,93.6
2015-11-20T02:53:42.329Z,93.6
2015-11-20T02:54:42.269Z,93
2015-11-20T02:55:42.241Z,93.5
2015-11-20T02:56:42.149Z,93.1
2015-11-20T02:57:42.121Z,93.3
2015-11-20T02:58:42.045Z,92.9
2015-11-20T02:59:42.017Z,92.9
2015-11-20T03:00:41.941Z,93
2015-11-20T03:01:42.116Z,93.2
2015-11-20T03:02:41.821Z,93.2
2015-11-20T03:03:41.762Z,93.3
2015-11-20T03:04:41.784Z,93
2015-11-20T03:05:41.702Z,93
2015-11-20T03:06:42.580Z,93.2
2015-11-20T03:07:41.566Z,93
2015-11-20T03:08:41.506Z,93
2015-11-20T03:09:41.431Z,93.3
2015-11-20T03:10:41.372Z,93.2
2015-11-20T03:11:41.328Z,93
2015-11-20T03:12:41.283Z,93.3
2015-11-20T03:13:41.208Z,93.4
2015-11-20T03:14:41.163Z,93.4
2015-11-20T03:15:41.104Z,93.5
2015-11-20T03:16:41.044Z,93.1
2015-11-20T03:17:41.047Z,93.2
2015-11-20T03:18:40.927Z,92.9
2015-11-20T03:19:40.882Z,93.1
2015-11-20T03:20:40.823Z,93.2
2015-11-20T03:21:40.779Z,93.7
2015-11-20T03:22:40.735Z,93.2
2015-11-20T03:23:40.660Z,93
2015-11-20T03:24:40.616Z,93.3
2015-11-20T03:25:40.587Z,93.4
2015-11-20T03:26:40.496Z,93.7
2015-11-20T03:27:40.436Z,93.2
2015-11-20T03:28:40.408Z,93.7
2015-11-20T03:29:40.176Z,94
2015-11-20T03:30:40.304Z,94
2015-11-20T03:31:40.229Z,94.1
2015-11-20T03:32:40.169Z,93.7
2015-11-20T03:33:40.109Z,93.6
2015-11-20T03:34:40.049Z,93.9
2015-11-20T03:35:40.021Z,93.8
2015-11-20T03:36:40.008Z,93.6
2015-11-20T03:37:39.885Z,93.9
2015-11-20T03:38:39.826Z,93.9
2015-11-20T03:39:40.016Z,93.7
2015-11-20T03:40:39.722Z,94.1
2015-11-20T03:41:39.896Z,94.1
2015-11-20T03:42:39.602Z,93.9
2015-11-20T03:43:39.558Z,94.1
2015-11-20T03:44:39.482Z,94.1
2015-11-20T03:45:39.438Z,93.9
2015-11-20T03:46:39.395Z,93.6
2015-11-20T03:47:39.351Z,93.3
2015-11-20T03:48:39.322Z,93.7
2015-11-20T03:49:39.232Z,93.5
2015-11-20T03:50:39.156Z,93.8
2015-11-20T03:51:39.112Z,93.7
2015-11-20T03:52:39.052Z,93.2
2015-11-20T03:53:38.992Z,93.3
2015-11-20T03:54:38.979Z,93.5
2015-11-20T03:55:38.885Z,93.8
2015-11-20T03:56:38.123Z,93.9
2015-11-20T03:57:38.765Z,93.5
2015-11-20T03:58:38.721Z,93.7
2015-11-20T03:59:38.693Z,93.7
2015-11-20T04:00:38.602Z,94
2015-11-20T04:01:38.793Z,93.4
2015-11-20T04:02:38.499Z,93.9
2015-11-20T04:03:38.439Z,94
2015-11-20T04:04:38.379Z,94.2
2015-11-20T04:05:38.335Z,94.3
2015-11-20T04:06:38.526Z,94.2
2015-11-20T04:07:38.481Z,93.9
2015-11-20T04:08:38.171Z,93.1
2015-11-20T04:09:38.127Z,93
2015-11-20T04:10:38.051Z,92.9
2015-11-20T04:11:38.007Z,92.7
2015-11-20T04:12:37.947Z,93.1
2015-11-20T04:13:37.904Z,92.7
2015-11-20T04:14:37.844Z,92.4
2015-11-20T04:15:37.768Z,92.3
2015-11-20T04:16:37.568Z,92.6
2015-11-20T04:17:37.665Z,92.4
2015-11-20T04:18:37.715Z,92
2015-11-20T04:19:37.561Z,92.2
2015-11-20T04:20:37.501Z,92
2015-11-20T04:21:37.473Z,92.5
2015-11-20T04:22:37.459Z,92.7
2015-11-20T04:23:37.336Z,92.6
2015-11-20T04:24:37.278Z,92.6
2015-11-20T04:25:37.233Z,92.6
2015-11-20T04:26:37.173Z,92.6
2015-11-20T04:27:37.145Z,92.9
2015-11-20T04:28:37.070Z,92.7
2015-11-20T04:29:37.010Z,92.5
2015-11-20T04:30:36.966Z,92.3
2015-11-20T04:31:36.906Z,92.4
2015-11-20T04:32:36.861Z,92.1
2015-11-20T04:33:36.786Z,92.2
2015-11-20T04:34:36.742Z,92.1
2015-11-20T04:35:36.683Z,92.4
2015-11-20T04:36:36.857Z,92.2
2015-11-20T04:37:36.578Z,91.8
2015-11-20T04:38:36.519Z,92.4
2015-11-20T04:39:36.475Z,92.3
2015-11-20T04:40:36.400Z,92.2
2015-11-20T04:41:36.355Z,92.2
2015-11-20T04:42:36.292Z,92.4
2015-11-20T04:43:36.235Z,92.5
2015-11-20T04:44:36.177Z,92.2
2015-11-20T04:45:36.089Z,92.3
2015-11-20T04:46:36.042Z,92
2015-11-20T04:47:36.001Z,92.1
2015-11-20T04:48:35.900Z,92.3
2015-11-20T04:49:35.883Z,91.9
2015-11-20T04:50:35.786Z,91.8
2015-11-20T04:51:35.738Z,91.7
2015-11-20T04:52:35.657Z,91.7
2015-11-20T04:53:35.611Z,91.9
2015-11-20T04:54:35.549Z,91.7
2015-11-20T04:55:35.488Z,91.7
2015-11-20T04:56:35.442Z,91.7
2015-11-20T04:57:35.381Z,92
2015-11-20T04:58:35.430Z,92.2
2015-11-20T04:59:35.259Z,92.2
2015-11-20T05:00:35.058Z,92.4
2015-11-20T05:01:35.155Z,92.4
2015-11-20T05:02:35.110Z,92.2
2015-11-20T05:03:35.048Z,92
2015-11-20T05:04:34.989Z,91.7
2015-11-20T05:05:34.930Z,91.7
2015-11-20T05:06:35.120Z,91.9
2015-11-20T05:07:34.841Z,91.7
2015-11-20T05:08:34.766Z,92.3
2015-11-20T05:09:34.722Z,92.4
2015-11-20T05:10:34.662Z,92.2
2015-11-20T05:11:34.617Z,92.2
2015-11-20T05:12:34.558Z,92.2
2015-11-20T05:13:34.498Z,92.6
2015-11-20T05:14:34.439Z,92.8
2015-11-20T05:15:34.394Z,92.6
2015-11-20T05:16:34.351Z,92.3
2015-11-20T05:17:34.291Z,92.5
2015-11-20T05:18:34.230Z,92.6
2015-11-20T05:19:34.171Z,92.4
2015-11-20T05:20:34.111Z,92.1
2015-11-20T05:21:33.911Z,92.1
2015-11-20T05:22:34.039Z,92.3
2015-11-20T05:23:33.994Z,91.9
2015-11-20T05:24:33.903Z,92.2
2015-11-20T05:25:33.844Z,92.3
2015-11-20T05:26:33.800Z,92.2
2015-11-20T05:27:33.739Z,92.1
2015-11-20T05:28:33.680Z,91.8
2015-11-20T05:29:33.667Z,92.3
2015-11-20T05:30:33.576Z,92.1
2015-11-20T05:31:33.688Z,91.8
2015-11-20T05:32:33.472Z,92
2015-11-20T05:33:33.459Z,91.9
2015-11-20T05:34:33.602Z,91.9
2015-11-20T05:35:33.308Z,91.4
2015-11-20T05:36:33.249Z,91.7
2015-11-20T05:37:33.205Z,91.4
2015-11-20T05:38:33.144Z,92
2015-11-20T05:39:33.085Z,91.9
2015-11-20T05:40:33.041Z,92.4
2015-11-20T05:41:33.215Z,92.1
2015-11-20T05:42:32.921Z,91.7
2015-11-20T05:43:32.862Z,91.6
2015-11-20T05:44:32.864Z,91.5
2015-11-20T05:45:32.773Z,91.4
2015-11-20T05:46:32.710Z,91.2
2015-11-20T05:47:32.651Z,91.2
2015-11-20T05:48:33.154Z,91.1
2015-11-20T05:49:32.546Z,91.4
2015-11-20T05:50:32.472Z,91.4
2015-11-20T05:51:32.427Z,91.1
2015-11-20T05:52:32.384Z,91.2
2015-11-20T05:53:32.323Z,91.2
2015-11-20T05:54:32.498Z,91.2
2015-11-20T05:55:32.219Z,90.1
2015-11-20T05:56:32.145Z,90.6
2015-11-20T05:57:32.101Z,90.6
2015-11-20T05:58:32.040Z,91
2015-11-20T05:59:32.062Z,90.4
2015-11-20T06:00:31.924Z,90.8
2015-11-20T06:01:31.879Z,91.1
2015-11-20T06:02:31.835Z,90.5
2015-11-20T06:03:31.775Z,90.7
2015-11-20T06:04:31.715Z,91
2015-11-20T06:05:31.656Z,91.5
2015-11-20T06:06:31.612Z,91.6
2015-11-20T06:07:31.537Z,92.2
2015-11-20T06:08:31.492Z,92
2015-11-20T06:09:31.448Z,92.1
2015-11-20T06:10:31.389Z,92
2015-11-20T06:11:31.359Z,91.7
2015-11-20T06:12:31.269Z,91.6
2015-11-20T06:13:31.225Z,92.2
2015-11-20T06:14:31.165Z,92.2
2015-11-20T06:15:31.106Z,92.3
2015-11-20T06:16:31.062Z,92.3
2015-11-20T06:17:31.236Z,92.1
2015-11-20T06:18:30.956Z,92.6
2015-11-20T06:19:30.913Z,92.8
2015-11-20T06:20:30.837Z,92.4
2015-11-20T06:21:30.793Z,92.3
2015-11-20T06:22:30.765Z,92.3
2015-11-20T06:23:30.674Z,92.3
2015-11-20T06:24:30.614Z,91.9
2015-11-20T06:25:30.555Z,92.1
2015-11-20T06:26:30.525Z,91.3
2015-11-20T06:27:30.450Z,91.3
2015-11-20T06:28:30.438Z,91.8
2015-11-20T06:29:30.377Z,91.9
2015-11-20T06:30:30.522Z,91.9
2015-11-20T06:31:30.242Z,91.9
2015-11-20T06:32:30.183Z,91.8
2015-11-20T06:33:30.358Z,91.7
2015-11-20T06:34:30.079Z,91.8
2015-11-20T06:35:30.019Z,92
2015-11-20T06:36:29.960Z,92
2015-11-20T06:37:29.899Z,91.8
2015-11-20T06:38:29.871Z,91.9
2015-11-20T06:39:29.827Z,92
2015-11-20T06:40:29.752Z,92.1
2015-11-20T06:41:29.692Z,92.2
2015-11-20T06:42:29.632Z,92.3
2015-11-20T06:43:29.588Z,92.6
2015-11-20T06:44:29.512Z,92.6
2015-11-20T06:45:29.468Z,92.9
2015-11-20T06:46:29.408Z,92.7
2015-11-20T06:47:29.365Z,93.1
2015-11-20T06:48:29.305Z,93.2
2015-11-20T06:49:29.245Z,93.3
2015-11-20T06:50:29.201Z,93
2015-11-20T06:51:29.126Z,92.9
2015-11-20T06:52:29.082Z,93.2
2015-11-20T06:53:29.021Z,93
2015-11-20T06:54:28.976Z,92.8
2015-11-20T06:55:28.918Z,92.7
2015-11-20T06:56:28.889Z,93
2015-11-20T06:57:28.810Z,93.1
2015-11-20T06:58:28.751Z,92.8
2015-11-20T06:59:28.691Z,92.6
2015-11-20T07:00:28.631Z,92.8
2015-11-20T07:01:28.571Z,92.3
2015-11-20T07:02:28.527Z,92.4
2015-11-20T07:03:28.467Z,92.6
2015-11-20T07:04:28.439Z,92.5
2015-11-20T07:05:28.364Z,92.3
2015-11-20T07:06:28.304Z,92
2015-11-20T07:07:28.306Z,91.5
2015-11-20T07:08:28.200Z,91.2
2015-11-20T07:09:28.139Z,91.5
2015-11-20T07:10:28.080Z,91.5
2015-11-20T07:11:28.036Z,91.6
2015-11-20T07:12:27.976Z,90.6
2015-11-20T07:13:27.917Z,91.2
2015-11-20T07:14:27.904Z,91.1
2015-11-20T07:15:27.813Z,90.7
2015-11-20T07:16:27.769Z,90.7
2015-11-20T07:17:27.694Z,91.1
2015-11-20T07:18:27.883Z,91.2
2015-11-20T07:19:27.620Z,91.2
2015-11-20T07:20:27.530Z,91.9
2015-11-20T07:21:27.485Z,92.1
2015-11-20T07:22:27.425Z,91.4
2015-11-20T07:23:27.381Z,91.3
2015-11-20T07:24:27.322Z,91.2
2015-11-20T07:25:27.261Z,91.4
2015-11-20T07:26:27.218Z,91.2
2015-11-20T07:27:27.158Z,91
2015-11-20T07:28:27.333Z,90.5
2015-11-20T07:29:27.039Z,90.6
2015-11-20T07:30:27.010Z,90
2015-11-20T07:31:26.935Z,89.9
2015-11-20T07:32:26.875Z,89.7
2015-11-20T07:33:26.816Z,88.7
2015-11-20T07:34:26.771Z,88.4
2015-11-20T07:35:26.710Z,88.9
2015-11-20T07:36:26.651Z,89.7
2015-11-20T07:37:26.607Z,87.9
2015-11-20T07:38:26.531Z,85.8
2015-11-20T07:39:26.488Z,84
2015-11-20T07:40:26.428Z,85.7
2015-11-20T07:41:26.384Z,86.9
2015-11-20T07:42:26.324Z,88.1
2015-11-20T07:43:26.265Z,89
2015-11-20T07:44:26.204Z,89.6
2015-11-20T07:45:26.145Z,89.7
2015-11-20T07:46:26.334Z,89.9
2015-11-20T07:47:26.056Z,90.8
2015-11-20T07:48:25.981Z,91.4
2015-11-20T07:49:25.937Z,92.3
2015-11-20T07:50:25.877Z,92.6
2015-11-20T07:51:25.817Z,93.3
2015-11-20T07:52:25.774Z,92.7
2015-11-20T07:53:25.713Z,93.6
2015-11-20T07:54:25.669Z,94.5
2015-11-20T07:55:25.593Z,94.7
2015-11-20T07:56:25.550Z,93.9
2015-11-20T07:57:25.506Z,93.5
2015-11-20T07:58:25.665Z,93.5
2015-11-20T07:59:25.386Z,93.2
2015-11-20T08:00:25.326Z,92.9
2015-11-20T08:01:25.501Z,92.9
2015-11-20T08:02:25.204Z,92.2
2015-11-20T08:03:25.159Z,91.6
2015-11-20T08:04:25.100Z,91.5
2015-11-20T08:05:25.055Z,91.1
2015-11-20T08:06:24.995Z,90.4
2015-11-20T08:07:24.936Z,89.9
2015-11-20T08:08:24.876Z,90.3
2015-11-20T08:09:24.848Z,90.3
2015-11-20T08:10:24.773Z,91
2015-11-20T08:11:24.713Z,89.7
2015-11-20T08:12:24.653Z,89.5
2015-11-20T08:13:24.828Z,89.4
2015-11-20T08:14:24.533Z,89.2
2015-11-20T08:15:24.505Z,89.8
2015-11-20T08:16:24.430Z,89.1
2015-11-20T08:17:24.369Z,89.9
2015-11-20T08:18:24.311Z,88.9
2015-11-20T08:19:24.266Z,89
2015-11-20T08:20:24.205Z,88.8
2015-11-20T08:21:24.162Z,88.4
2015-11-20T08:22:24.102Z,89.1
2015-11-20T08:23:24.042Z,88.8
2015-11-20T08:24:23.998Z,89.6
2015-11-20T08:25:23.939Z,90.3
2015-11-20T08:26:23.144Z,90.2
2015-11-20T08:27:23.835Z,90.2
2015-11-20T08:28:23.806Z,90.3
2015-11-20T08:29:23.763Z,90.2
2015-11-20T08:30:23.655Z,90.6
2015-11-20T08:31:23.596Z,90.7
2015-11-20T08:32:23.551Z,90.4
2015-11-20T08:33:23.491Z,90
2015-11-20T08:34:23.432Z,90
2015-11-20T08:35:23.622Z,90.3
2015-11-20T08:36:23.328Z,90.8
2015-11-20T08:37:23.268Z,91.7
2015-11-20T08:38:23.208Z,91.7
2015-11-20T08:39:23.164Z,91.5
2015-11-20T08:40:23.104Z,91.7
2015-11-20T08:41:23.060Z,91.5
2015-11-20T08:42:23.001Z,91.2
2015-11-20T08:43:23.176Z,91.8
2015-11-20T08:44:22.896Z,91.9
2015-11-20T08:45:22.821Z,91.5
2015-11-20T08:46:22.777Z,92.3
2015-11-20T08:47:22.733Z,92.8
2015-11-20T08:48:22.673Z,92.5
2015-11-20T08:49:22.613Z,91.9
2015-11-20T08:50:22.554Z,91.7
2015-11-20T08:51:22.509Z,91.9
2015-11-20T08:52:22.451Z,91.7
2015-11-20T08:53:22.406Z,91.8
2015-11-20T08:54:22.331Z,91.7
2015-11-20T08:55:22.270Z,91.6
2015-11-20T08:56:22.242Z,91.7
2015-11-20T08:57:22.182Z,92.4
2015-11-20T08:58:22.123Z,91.5
2015-11-20T08:59:22.063Z,91.2
2015-11-20T09:00:22.018Z,90.6
2015-11-20T09:01:21.959Z,90.7
2015-11-20T09:02:21.896Z,90.4
2015-11-20T09:03:21.884Z,91
2015-11-20T09:04:21.793Z,91.8
2015-11-20T09:05:21.779Z,91.2
2015-11-20T09:06:21.720Z,90.9
2015-11-20T09:07:21.628Z,90.5
2015-11-20T09:08:21.412Z,91
2015-11-20T09:09:21.508Z,91.2
2015-11-20T09:10:21.701Z,91.1
2015-11-20T09:11:21.391Z,91.3
2015-11-20T09:12:21.346Z,90.7
2015-11-20T09:13:21.287Z,91.2
2015-11-20T09:14:21.259Z,90.8
2015-11-20T09:15:21.167Z,90.2
2015-11-20T09:16:21.123Z,90.6
2015-11-20T09:17:21.063Z,90.3
2015-11-20T09:18:21.020Z,90.5
2015-11-20T09:19:20.959Z,89.6
2015-11-20T09:20:20.900Z,89.7
2015-11-20T09:21:20.839Z,89.8
2015-11-20T09:22:20.795Z,89.4
2015-11-20T09:23:20.736Z,89.2
2015-11-20T09:24:20.676Z,88.5
2015-11-20T09:25:20.631Z,88.6
2015-11-20T09:26:20.572Z,88.3
2015-11-20T09:27:20.528Z,87.7
2015-11-20T09:28:20.483Z,88.3
2015-11-20T09:29:20.408Z,88.5
2015-11-20T09:30:20.364Z,88.5
2015-11-20T09:31:20.304Z,87.4
2015-11-20T09:32:20.260Z,88.1
2015-11-20T09:33:20.200Z,88.2
2015-11-20T09:34:20.141Z,88.2
2015-11-20T09:35:20.081Z,88.7
2015-11-20T09:36:20.036Z,88.5
2015-11-20T09:37:20.008Z,88.6
2015-11-20T09:38:19.933Z,87.7
2015-11-20T09:39:19.904Z,88.1
2015-11-20T09:40:19.814Z,88.3
2015-11-20T09:41:19.769Z,88.7
2015-11-20T09:42:19.756Z,88.3
2015-11-20T09:43:19.666Z,87.7
2015-11-20T09:44:19.622Z,88.9
2015-11-20T09:45:19.546Z,89.1
2015-11-20T09:46:19.502Z,88.5
2015-11-20T09:47:19.442Z,89.3
2015-11-20T09:48:19.398Z,89.2
2015-11-20T09:49:19.355Z,89.3
2015-11-20T09:50:19.277Z,89.3
2015-11-20T09:51:19.218Z,89.3
2015-11-20T09:52:18.424Z,88.6
2015-11-20T09:53:19.115Z,88.6
2015-11-20T09:54:19.055Z,88.3
2015-11-20T09:55:19.011Z,88.3
2015-11-20T09:56:18.967Z,88.7
2015-11-20T09:57:18.891Z,88.3
2015-11-20T09:58:18.847Z,89.1
2015-11-20T09:59:18.787Z,88
2015-11-20T10:00:17.990Z,88.8
2015-11-20T10:01:18.680Z,87.7
2015-11-20T10:02:18.637Z,87.6
2015-11-20T10:03:18.577Z,87.9
2015-11-20T10:04:18.563Z,87.5
2015-11-20T10:05:18.457Z,87.7
2015-11-20T10:06:18.413Z,87.6
2015-11-20T10:07:18.354Z,88.5
2015-11-20T10:08:18.309Z,88.7
2015-11-20T10:09:18.249Z,88.8
2015-11-20T10:10:18.190Z,88.6
2015-11-20T10:11:18.145Z,88.6
2015-11-20T10:12:18.085Z,88.6
2015-11-20T10:13:18.042Z,87.9
2015-11-20T10:14:17.997Z,88.5
2015-11-20T10:15:17.906Z,88.1
2015-11-20T10:16:17.862Z,87.7
2015-11-20T10:17:17.803Z,87.6
2015-11-20T10:18:17.759Z,88
2015-11-20T10:19:17.714Z,87.6
2015-11-20T10:20:17.639Z,87.4
2015-11-20T10:21:17.609Z,86.9
2015-11-20T10:22:17.770Z,86.8
2015-11-20T10:23:17.490Z,85.3
2015-11-20T10:24:17.431Z,85.4
2015-11-20T10:25:17.370Z,83.7
2015-11-20T10:26:17.312Z,84.3
2015-11-20T10:27:17.267Z,83.4
2015-11-20T10:28:17.223Z,84.2
2015-11-20T10:29:17.164Z,84.1
2015-11-20T10:30:17.088Z,82.9
2015-11-20T10:31:16.309Z,83.2
2015-11-20T10:32:17.000Z,85
2015-11-20T10:33:16.939Z,84.8
2015-11-20T10:34:16.880Z,85.4
2015-11-20T10:35:16.820Z,86.6
2015-11-20T10:36:16.776Z,85.5
2015-11-20T10:37:16.732Z,85.4
2015-11-20T10:38:16.672Z,85.1
2015-11-20T10:39:16.613Z,84.4
2015-11-20T10:40:16.569Z,84.4
2015-11-20T10:41:16.509Z,84.2
2015-11-20T10:42:16.449Z,84.5
2015-11-20T10:43:16.404Z,85.2
2015-11-20T10:44:16.580Z,85.9
2015-11-20T10:45:16.301Z,85.1
2015-11-20T10:46:16.241Z,84.4
2015-11-20T10:47:16.181Z,85.4
2015-11-20T10:48:16.137Z,84.6
2015-11-20T10:49:16.327Z,85.5
2015-11-20T10:50:16.064Z,85.8
2015-11-20T10:51:16.020Z,84.8
2015-11-20T10:52:15.929Z,85
2015-11-20T10:53:15.869Z,85.4
2015-11-20T10:54:15.809Z,85.2
2015-11-20T10:55:15.766Z,84.2
2015-11-20T10:56:15.705Z,84.6
2015-11-20T10:57:15.646Z,84.9
2015-11-20T10:58:15.602Z,84.8
2015-11-20T10:59:15.543Z,84
2015-11-20T11:00:15.482Z,84.4
2015-11-20T11:01:15.485Z,84.4
2015-11-20T11:02:15.394Z,84.3
2015-11-20T11:03:15.332Z,83.4
2015-11-20T11:04:15.287Z,84.6
2015-11-20T11:05:15.243Z,85.5
2015-11-20T11:06:15.277Z,84.7
2015-11-20T11:07:15.107Z,84.5
2015-11-20T11:08:15.064Z,84.7
2015-11-20T11:09:15.004Z,84.7
2015-11-20T11:10:14.960Z,84.4
2015-11-20T11:11:14.900Z,84.5
2015-11-20T11:12:14.856Z,84.1
2015-11-20T11:13:14.781Z,83.4
2015-11-20T11:14:14.751Z,84
2015-11-20T11:15:14.676Z,84.3
2015-11-20T11:16:14.617Z,84.4
2015-11-20T11:17:14.572Z,84.5
2015-11-20T11:18:14.512Z,84.2
2015-11-20T11:19:14.473Z,84.4
2015-11-20T11:20:14.398Z,84.6
2015-11-20T11:21:14.354Z,84.6
2015-11-20T11:22:14.529Z,83.4
2015-11-20T11:23:14.250Z,84.3
2015-11-20T11:24:14.206Z,84.6
2015-11-20T11:25:14.209Z,84.6
2015-11-20T11:26:14.180Z,83.6
2015-11-20T11:27:14.027Z,83.8
2015-11-20T11:28:13.966Z,83.6
2015-11-20T11:29:13.923Z,84
2015-11-20T11:30:13.847Z,84.2
2015-11-20T11:31:14.038Z,84
2015-11-20T11:32:13.759Z,84.4
2015-11-20T11:33:13.699Z,84.7
2015-11-20T11:34:13.655Z,84.3
2015-11-20T11:35:13.611Z,85.1
2015-11-20T11:36:13.566Z,83.7
2015-11-20T11:37:13.523Z,83.2
2015-11-20T11:38:13.432Z,83.3
2015-11-20T11:39:13.372Z,84.1
2015-11-20T11:40:13.313Z,83.8
2015-11-20T11:41:13.269Z,82.8
2015-11-20T11:42:13.224Z,83.1
2015-11-20T11:43:13.196Z,81.6
2015-11-20T11:44:13.136Z,82.3
2015-11-20T11:45:13.045Z,82
2015-11-20T11:46:13.001Z,82.1
2015-11-20T11:47:12.941Z,82.8
2015-11-20T11:48:12.882Z,83.5
2015-11-20T11:49:12.852Z,82.2
2015-11-20T11:50:12.808Z,82.1
2015-11-20T11:51:12.765Z,81.8
2015-11-20T11:52:12.923Z,82
2015-11-20T11:53:12.646Z,81.2
2015-11-20T11:54:12.585Z,81.5
2015-11-20T11:55:12.556Z,81.7
2015-11-20T11:56:12.497Z,80
2015-11-20T11:57:12.422Z,81
2015-11-20T11:58:12.393Z,81.1
2015-11-20T11:59:12.342Z,81.2
2015-11-20T12:00:12.314Z,81.1
2015-11-20T12:01:12.208Z,79.8
2015-11-20T12:02:12.147Z,80.8
2015-11-20T12:03:12.104Z,81.8
2015-11-20T12:04:12.028Z,81.2
2015-11-20T12:05:11.968Z,80.7
2015-11-20T12:06:11.905Z,81.7
2015-11-20T12:07:11.862Z,81.9
2015-11-20T12:08:11.802Z,81.3
2015-11-20T12:09:11.758Z,81.2
2015-11-20T12:10:11.730Z,82
2015-11-20T12:11:11.639Z,81.9
2015-11-20T12:12:11.595Z,81.9
2015-11-20T12:13:11.769Z,82.3
2015-11-20T12:14:11.569Z,81.4
2015-11-20T12:15:11.414Z,81.3
2015-11-20T12:16:11.371Z,81.6
2015-11-20T12:17:11.327Z,82.3
2015-11-20T12:18:11.266Z,80.3
2015-11-20T12:19:11.207Z,79.7
2015-11-20T12:20:11.178Z,80.7
2015-11-20T12:21:11.134Z,80.8
2015-11-20T12:22:11.090Z,81.7
2015-11-20T12:23:10.984Z,81.9
2015-11-20T12:24:10.924Z,81.4
2015-11-20T12:25:10.879Z,81.9
2015-11-20T12:26:10.819Z,82.1
2015-11-20T12:27:10.760Z,81.3
2015-11-20T12:28:10.732Z,81.4
2015-11-20T12:29:10.657Z,81.1
2015-11-20T12:30:10.596Z,81.8
2015-11-20T12:31:10.583Z,81.2
2015-11-20T12:32:10.508Z,81.3
2015-11-20T12:33:10.479Z,80.9
2015-11-20T12:34:10.388Z,81.2
2015-11-20T12:35:10.376Z,80.1
2015-11-20T12:36:10.268Z,79.2
2015-11-20T12:37:10.224Z,77.6
2015-11-20T12:38:10.165Z,77.5
2015-11-20T12:39:10.340Z,78.9
2015-11-20T12:40:10.046Z,78.3
2015-11-20T12:41:10.002Z,78.3
2015-11-20T12:42:10.176Z,79.3
2015-11-20T12:43:09.897Z,79.5
2015-11-20T12:44:09.948Z,79.6
2015-11-20T12:45:09.763Z,79.6
2015-11-20T12:46:09.718Z,80.3
2015-11-20T12:47:09.659Z,78.8
2015-11-20T12:48:09.615Z,79.3
2015-11-20T12:49:09.554Z,80
2015-11-20T12:50:09.495Z,79.2
2015-11-20T12:51:09.435Z,79.8
2015-11-20T12:52:09.376Z,79.6
2015-11-20T12:53:09.331Z,79.7
2015-11-20T12:54:09.303Z,78.4
2015-11-20T12:55:09.211Z,77.4
2015-11-20T12:56:09.151Z,77.3
2015-11-20T12:57:09.108Z,77.6
2015-11-20T12:58:09.048Z,77.1
2015-11-20T12:59:09.003Z,77.8
2015-11-20T13:00:08.929Z,78.2
2015-11-20T13:01:08.884Z,78.3
2015-11-20T13:02:08.825Z,77.5
2015-11-20T13:03:08.781Z,78.8
2015-11-20T13:04:08.705Z,79.1
2015-11-20T13:05:08.692Z,79.2
2015-11-20T13:06:08.835Z,79.3
2015-11-20T13:07:08.553Z,79.4
2015-11-20T13:08:08.479Z,79.2
2015-11-20T13:09:08.434Z,80
2015-11-20T13:10:08.375Z,80.6
2015-11-20T13:11:08.314Z,81.3
2015-11-20T13:12:08.286Z,81.8
2015-11-20T13:13:08.211Z,81.4
2015-11-20T13:14:08.152Z,81.1
2015-11-20T13:15:08.091Z,81.5
2015-11-20T13:16:08.047Z,81.5
2015-11-20T13:17:07.988Z,81.8
2015-11-20T13:18:07.928Z,81
2015-11-20T13:19:07.883Z,81.7
2015-11-20T13:20:07.824Z,81.2
2015-11-20T13:21:07.764Z,81.3
2015-11-20T13:22:07.704Z,81.7
2015-11-20T13:23:07.660Z,81.7
2015-11-20T13:24:07.585Z,81.7